Terminal Aerodrome Forecast
Issued by NWS

Home | Current Version | Previous Version | Graphics & Text | Print | Product List | Glossary Off
Versions: 1 2 3 4 5 6 7 8 9 10 11 12 13

000
FTUS43 KTOP 241727
TAFMHK
TAF
KMHK 241727Z 2418/2518 24017KT P6SM FEW200
     FM242000 30014KT P6SM SCT200
     FM250100 34007KT P6SM SCT120=

USA.gov is the U.S. government's official web portal to all federal, state and local government web resources and services.